Time;durP1;ratioP1;P1;durP2;ratioP2;P2;SDS_P1;SDS_P2;PMS_P1;PMS_P2;Temp;Humidity;BMP_temperature;BMP_pressure;BME280_temperature;BME280_humidity;BME280_pressure;Samples;Min_cycle;Max_cycle;Signal;HPM_P1;HPM_P2
2021/12/22 00:02:00;;;;;;;;;;;;;;;-1.03;70.11;102450.22;5142629;27;35544;-87
2021/12/22 00:04:25;;;;;;;;;;;;;;;-1.03;69.98;102450.22;5144154;27;26890;-88
2021/12/22 00:06:51;;;;;;;;;;;;;;;-1.04;70.23;102445.94;5141187;27;26780;-88
2021/12/22 00:09:17;;;;;;;;;;;;;;;-1.04;70.30;102458.63;5121935;27;28047;-87
2021/12/22 00:11:44;;;;;;;;;;;;;;;-1.06;69.74;102455.16;5141150;27;26686;-87
2021/12/22 00:14:09;;;;;;;;;;;;;;;-1.06;69.86;102450.09;5141736;27;27400;-88
2021/12/22 00:16:35;;;;;;;;;;;;;;;-1.05;69.73;102451.81;5140624;27;27151;-88
2021/12/22 00:19:00;;;;;;;;;;;;;;;-1.06;69.30;102450.09;5140485;27;27169;-88
2021/12/22 00:21:25;;;;;;;;;;;;;;;-1.07;69.81;102438.19;5140971;27;26982;-88
2021/12/22 00:23:50;;;;;;;;;;;;;;;-1.07;69.43;102438.19;5144861;27;27996;-88
2021/12/22 00:26:16;;;;;;;;;;;;;;;-1.12;69.86;102434.56;5145881;27;26785;-87
2021/12/22 00:28:41;;;;;;;;;;;;;;;-1.09;69.43;102444.84;5126068;27;27827;-87
2021/12/22 00:31:12;;;;;;;;;;;;;;;-1.10;70.06;102448.19;5143591;27;26984;-87
2021/12/22 00:33:46;;;;;;;;;;;;;;;-1.10;69.68;102453.28;5144695;27;27061;-87
2021/12/22 00:36:11;;;;;;;;;;;;;;;-1.11;70.19;102456.59;5142513;27;26876;-88
2021/12/22 00:38:36;;;;;;;;;;;;;;;-1.32;69.47;102427.66;5125642;27;27703;-88
2021/12/22 00:41:02;;;;;;;;;;;;;;;-1.09;69.74;102460.06;5127830;27;26837;-87
2021/12/22 00:43:27;;;;;;;;;;;;;;;-1.10;69.96;102463.41;5155044;27;26703;-87
2021/12/22 00:45:56;;;;;;;;;;;;;;;-1.09;69.96;102464.28;5143560;27;51367;-87
2021/12/22 00:48:21;;;;;;;;;;;;;;;-1.10;70.21;102460.88;5126284;27;27643;-87
2021/12/22 00:50:46;;;;;;;;;;;;;;;-1.10;69.56;102458.34;5145852;27;26842;-88
2021/12/22 00:53:12;;;;;;;;;;;;;;;-1.10;69.48;102453.28;5144516;27;48740;-88
2021/12/22 00:55:37;;;;;;;;;;;;;;;-1.30;69.48;102421.00;5127095;27;26816;-87
2021/12/22 00:58:03;;;;;;;;;;;;;;;-1.12;69.59;102457.38;5126906;27;27598;-87
2021/12/22 01:00:29;;;;;;;;;;;;;;;-1.13;70.09;102458.19;5129965;27;26489;-87
2021/12/22 01:02:54;;;;;;;;;;;;;;;-1.15;69.63;102462.31;5130949;27;27748;-86
2021/12/22 01:05:20;;;;;;;;;;;;;;;-1.16;69.75;102452.94;5149222;27;26800;-87
2021/12/22 01:07:46;;;;;;;;;;;;;;;-1.17;70.20;102458.84;5129011;27;28340;-87
2021/12/22 01:10:12;;;;;;;;;;;;;;;-1.17;69.79;102466.44;5127943;27;27013;-87
2021/12/22 01:12:38;;;;;;;;;;;;;;;-1.19;70.11;102470.53;5146815;27;26817;-87
2021/12/22 01:15:04;;;;;;;;;;;;;;;-1.20;69.75;102466.25;5146084;27;26980;-89
2021/12/22 01:17:37;;;;;;;;;;;;;;;-1.22;70.13;102470.41;5144441;27;27066;-89
2021/12/22 01:20:09;;;;;;;;;;;;;;;-1.24;69.79;102472.00;5145532;27;27031;-87
2021/12/22 01:22:48;;;;;;;;;;;;;;;-1.29;69.91;102460.75;5146500;27;27229;-87
2021/12/22 01:25:15;;;;;;;;;;;;;;;-1.29;69.84;102458.22;5146267;27;26823;-86
2021/12/22 01:27:42;;;;;;;;;;;;;;;-1.32;70.38;102455.56;5146070;27;27836;-87
2021/12/22 01:30:13;;;;;;;;;;;;;;;-1.34;70.00;102462.19;5145800;27;27010;-88
2021/12/22 01:32:39;;;;;;;;;;;;;;;-1.35;69.94;102459.59;5125651;27;27896;-88
2021/12/22 01:35:06;;;;;;;;;;;;;;;-1.36;70.34;102458.72;5124945;27;26949;-88
2021/12/22 01:37:31;;;;;;;;;;;;;;;-1.35;69.71;102450.31;5126105;27;28575;-88
2021/12/22 01:39:56;;;;;;;;;;;;;;;-1.35;69.88;102455.38;5143996;27;26882;-88
2021/12/22 01:42:22;;;;;;;;;;;;;;;-1.36;70.26;102458.72;5124943;27;27975;-88
2021/12/22 01:45:24;;;;;;;;;;;;;;;-1.36;70.74;102458.72;5145425;27;26739;-87
2021/12/22 01:50:37;;;;;;;;;;;;;;;-1.35;70.03;102460.44;5145615;27;26409;-89
2021/12/22 01:53:05;;;;;;;;;;;;;;;-1.35;70.31;102465.50;5124230;27;27100;-88
2021/12/22 01:55:35;;;;;;;;;;;;;;;-1.39;69.75;102453.50;5125633;27;26977;-89
2021/12/22 01:58:01;;;;;;;;;;;;;;;-1.35;70.52;102468.03;5124719;27;27860;-88
2021/12/22 02:00:26;;;;;;;;;;;;;;;-1.35;70.39;102470.56;5143205;27;26934;-89
2021/12/22 02:02:51;;;;;;;;;;;;;;;-1.35;70.51;102470.56;5125136;27;28565;-88
2021/12/22 02:05:17;;;;;;;;;;;;;;;-1.36;70.62;102471.38;5143896;27;27045;-88
2021/12/22 02:07:42;;;;;;;;;;;;;;;-1.37;70.61;102467.09;5142840;27;29020;-88
2021/12/22 02:12:45;;;;;;;;;;;;;;;-1.37;70.20;102472.19;5140283;27;26833;-89
2021/12/22 02:15:10;;;;;;;;;;;;;;;-1.38;70.38;102465.34;5143759;27;26892;-87
2021/12/22 02:17:36;;;;;;;;;;;;;;;-1.37;70.05;102464.56;5144835;27;32792;-87
2021/12/22 02:20:01;;;;;;;;;;;;;;;-1.38;70.33;102464.47;5145031;27;27003;-86
2021/12/22 02:22:27;;;;;;;;;;;;;;;-1.39;69.96;102463.66;5146488;27;26796;-87
2021/12/22 02:24:57;;;;;;;;;;;;;;;-1.40;70.74;102459.34;5126570;27;27060;-88
2021/12/22 02:27:38;;;;;;;;;;;;;;;-1.39;70.42;102463.66;5124337;27;27829;-88
2021/12/22 02:30:06;;;;;;;;;;;;;;;-1.39;70.51;102458.56;5142099;27;26690;-88
2021/12/22 02:35:01;;;;;;;;;;;;;;;-1.36;70.05;102461.25;5138700;27;26849;-88
2021/12/22 02:37:27;;;;;;;;;;;;;;;-1.35;70.43;102457.91;5124828;27;27650;-88
2021/12/22 02:39:59;;;;;;;;;;;;;;;-1.35;70.11;102460.44;5143982;27;27008;-88
2021/12/22 02:42:28;;;;;;;;;;;;;;;-1.36;69.83;102458.72;5143915;27;27090;-88
2021/12/22 02:44:53;;;;;;;;;;;;;;;-1.37;70.11;102458.63;5143714;27;26852;-87
2021/12/22 02:47:20;;;;;;;;;;;;;;;-1.40;70.23;102454.28;5143414;27;28217;-87
2021/12/22 02:49:47;;;;;;;;;;;;;;;-1.41;70.38;102452.53;5144512;27;26426;-87
2021/12/22 02:52:12;;;;;;;;;;;;;;;-1.44;69.87;102454.94;5144469;27;27594;-87
2021/12/22 02:54:44;;;;;;;;;;;;;;;-1.45;70.28;102453.19;5144377;27;26639;-87
2021/12/22 02:57:23;;;;;;;;;;;;;;;-1.45;70.34;102455.72;5148152;27;26931;-88
2021/12/22 03:00:23;;;;;;;;;;;;;;;-1.47;69.93;102452.25;5147467;27;26932;-88
2021/12/22 03:05:24;;;;;;;;;;;;;;;-1.44;69.74;102460.00;5144937;27;26828;-88
2021/12/22 03:07:49;;;;;;;;;;;;;;;-1.43;69.63;102461.75;5143975;27;27141;-88
2021/12/22 03:10:17;;;;;;;;;;;;;;;-1.43;70.03;102461.75;5146070;27;26379;-87
2021/12/22 03:12:46;;;;;;;;;;;;;;;-1.42;70.05;102457.56;5147928;27;26768;-87
2021/12/22 03:15:11;;;;;;;;;;;;;;;-1.43;69.81;102461.75;5145686;27;27133;-88
2021/12/22 03:17:37;;;;;;;;;;;;;;;-1.43;70.30;102456.69;5142397;27;29569;-87
2021/12/22 03:20:05;;;;;;;;;;;;;;;-1.44;70.25;102465.06;5144150;27;26791;-87
2021/12/22 03:22:30;;;;;;;;;;;;;;;-1.48;70.01;102453.91;5124371;27;27327;-87
2021/12/22 03:24:55;;;;;;;;;;;;;;;-1.44;69.74;102464.19;5124997;27;40389;-88
2021/12/22 03:27:23;;;;;;;;;;;;;;;-1.44;70.36;102460.00;5142619;27;27171;-88
2021/12/22 03:29:49;;;;;;;;;;;;;;;-1.45;70.59;102463.31;5124502;27;26960;-88
2021/12/22 03:32:15;;;;;;;;;;;;;;;-1.46;70.19;102457.38;5118372;27;27910;-87
2021/12/22 03:34:41;;;;;;;;;;;;;;;-1.46;70.12;102461.56;5142532;27;26891;-87
2021/12/22 03:37:07;;;;;;;;;;;;;;;-1.48;70.04;102468.25;5144888;27;27723;-87
2021/12/22 03:39:33;;;;;;;;;;;;;;;-1.50;70.23;102459.69;5145484;27;26479;-87
2021/12/22 03:41:58;;;;;;;;;;;;;;;-1.52;69.79;102461.28;5121402;27;27612;-87
2021/12/22 03:44:23;;;;;;;;;;;;;;;-1.53;69.40;102459.53;5143134;27;26931;-88
2021/12/22 03:46:50;;;;;;;;;;;;;;;-1.53;70.26;102469.66;5143461;27;27377;-87
2021/12/22 03:49:15;;;;;;;;;;;;;;;-1.54;70.02;102463.72;5143063;27;26801;-88
2021/12/22 03:51:41;;;;;;;;;;;;;;;-1.53;69.78;102464.59;5142884;27;26808;-87
2021/12/22 03:54:07;;;;;;;;;;;;;;;-1.53;69.85;102464.59;5123491;27;27492;-87
2021/12/22 03:56:32;;;;;;;;;;;;;;;-1.53;69.61;102469.66;5143385;27;27394;-88
2021/12/22 03:58:57;;;;;;;;;;;;;;;-1.55;70.08;102467.06;5123741;27;27001;-87
2021/12/22 04:01:22;;;;;;;;;;;;;;;-1.80;69.73;102422.69;5145208;27;27347;-86
2021/12/22 04:03:51;;;;;;;;;;;;;;;-1.54;69.38;102465.41;5156461;27;54332;-86
2021/12/22 04:06:16;;;;;;;;;;;;;;;-1.54;70.27;102467.94;5144620;27;27013;-87
2021/12/22 04:08:41;;;;;;;;;;;;;;;-1.55;69.71;102453.53;5142764;27;26792;-88
2021/12/22 04:11:08;;;;;;;;;;;;;;;-1.56;70.13;102464.44;5142152;27;26824;-87
2021/12/22 04:13:33;;;;;;;;;;;;;;;-1.56;69.57;102459.38;5143897;27;26877;-87
2021/12/22 04:15:59;;;;;;;;;;;;;;;-1.56;69.94;102454.31;5140902;27;35041;-88
2021/12/22 04:18:24;;;;;;;;;;;;;;;-1.56;70.20;102454.31;5142322;27;26866;-88
2021/12/22 04:20:50;;;;;;;;;;;;;;;-1.58;69.66;102453.38;5142660;27;27367;-88
2021/12/22 04:23:15;;;;;;;;;;;;;;;-1.62;69.49;102454.00;5141863;27;26999;-89
2021/12/22 04:25:42;;;;;;;;;;;;;;;-1.60;70.00;102465.94;5146414;27;27063;-88
2021/12/22 04:28:09;;;;;;;;;;;;;;;-1.60;69.75;102453.28;5144660;27;26740;-89
2021/12/22 04:30:37;;;;;;;;;;;;;;;-1.60;69.96;102452.41;5122883;27;26863;-88
2021/12/22 04:33:03;;;;;;;;;;;;;;;-1.60;69.77;102442.28;5142647;27;26801;-87
2021/12/22 04:35:28;;;;;;;;;;;;;;;-1.61;69.54;102440.53;5142993;27;26966;-88
2021/12/22 04:37:54;;;;;;;;;;;;;;;-1.61;69.88;102438.00;5142800;27;26949;-88
2021/12/22 04:40:19;;;;;;;;;;;;;;;-1.63;69.99;102427.81;5123882;27;28756;-87
2021/12/22 04:42:45;;;;;;;;;;;;;;;-1.63;69.48;102422.75;5143146;27;27030;-87
2021/12/22 04:45:12;;;;;;;;;;;;;;;-1.64;69.56;102421.00;5141047;27;26973;-89
2021/12/22 04:47:38;;;;;;;;;;;;;;;-1.65;69.54;102418.41;5142624;27;26863;-88
2021/12/22 04:50:09;;;;;;;;;;;;;;;-1.66;70.00;102419.19;5142458;27;27900;-88
2021/12/22 04:52:41;;;;;;;;;;;;;;;-1.68;69.66;102418.22;5142195;27;26789;-88
2021/12/22 04:55:07;;;;;;;;;;;;;;;-1.69;69.72;102411.44;5123941;27;27818;-87
2021/12/22 04:57:33;;;;;;;;;;;;;;;-1.70;69.89;102412.22;5142862;27;26836;-87
2021/12/22 04:59:59;;;;;;;;;;;;;;;-1.70;69.91;102414.75;5143647;27;27117;-87
2021/12/22 05:02:24;;;;;;;;;;;;;;;-1.70;69.66;102409.69;5144021;27;26896;-87
2021/12/22 05:04:49;;;;;;;;;;;;;;;-1.70;70.24;102409.69;5144270;27;27020;-87
2021/12/22 05:07:14;;;;;;;;;;;;;;;-1.70;69.47;102414.75;5142991;27;47366;-87
2021/12/22 05:09:39;;;;;;;;;;;;;;;-1.71;69.69;102407.94;5141580;27;56436;-87
2021/12/22 05:12:05;;;;;;;;;;;;;;;-1.70;69.96;102414.75;5145484;27;32743;-87
2021/12/22 05:14:31;;;;;;;;;;;;;;;-1.71;69.62;102413.88;5146494;27;28010;-87
2021/12/22 05:17:01;;;;;;;;;;;;;;;-1.71;69.96;102413.00;5146323;27;26956;-87
2021/12/22 05:19:26;;;;;;;;;;;;;;;-1.73;69.66;102414.59;5146303;27;28015;-87
2021/12/22 05:21:51;;;;;;;;;;;;;;;-1.73;70.14;102417.13;5146285;27;35021;-87
2021/12/22 05:24:16;;;;;;;;;;;;;;;-1.75;69.46;102412.00;5146174;27;28100;-88
2021/12/22 05:26:41;;;;;;;;;;;;;;;-1.75;69.43;102411.13;5148553;27;46780;-89
2021/12/22 05:29:07;;;;;;;;;;;;;;;-1.77;69.46;102407.66;5147673;27;46185;-88
2021/12/22 05:31:32;;;;;;;;;;;;;;;-1.77;70.16;102412.72;5145635;27;26689;-88
2021/12/22 05:33:57;;;;;;;;;;;;;;;-1.76;70.21;102409.41;5144473;27;27160;-87
2021/12/22 05:36:22;;;;;;;;;;;;;;;-1.73;69.76;102404.47;5125399;27;56761;-85
2021/12/22 05:38:48;;;;;;;;;;;;;;;-1.53;70.94;102406.31;5145832;27;27828;-87
2021/12/22 05:41:13;;;;;;;;;;;;;;;-1.43;71.04;102406.00;5134163;27;26875;-87
2021/12/22 05:43:38;;;;;;;;;;;;;;;-1.39;70.54;102412.97;5146605;27;42341;-88
2021/12/22 05:46:03;;;;;;;;;;;;;;;-1.41;70.43;102406.94;5136842;27;54647;-89
2021/12/22 05:48:29;;;;;;;;;;;;;;;-1.42;70.53;102406.88;5133785;27;27576;-88
2021/12/22 05:50:57;;;;;;;;;;;;;;;-1.42;69.90;102402.66;5130263;27;26841;-86
2021/12/22 05:53:23;;;;;;;;;;;;;;;-1.42;69.84;102405.19;5146467;27;26819;-86
2021/12/22 05:55:49;;;;;;;;;;;;;;;-1.43;69.81;102400.94;5129283;27;26909;-86
2021/12/22 05:58:14;;;;;;;;;;;;;;;-1.44;69.63;102399.19;5147934;27;27771;-87
2021/12/22 06:00:39;;;;;;;;;;;;;;;-1.48;69.41;102395.63;5148729;27;26545;-86
2021/12/22 06:03:04;;;;;;;;;;;;;;;-1.48;69.80;102394.78;5148747;27;27318;-86
2021/12/22 06:05:30;;;;;;;;;;;;;;;-1.51;69.90;102403.09;5145634;27;55532;-87
2021/12/22 06:07:55;;;;;;;;;;;;;;;-1.52;69.53;102400.47;5147431;27;27842;-85
2021/12/22 06:10:20;;;;;;;;;;;;;;;-1.53;69.34;102398.72;5147056;27;27132;-89
2021/12/22 06:12:48;;;;;;;;;;;;;;;-1.53;69.83;102393.66;5127383;27;32435;-89
2021/12/22 06:15:13;;;;;;;;;;;;;;;-1.52;69.91;102395.41;5144231;27;27085;-88
2021/12/22 06:17:39;;;;;;;;;;;;;;;-1.50;70.01;102393.84;5143886;27;28161;-88
2021/12/22 06:20:04;;;;;;;;;;;;;;;-1.49;70.14;102385.41;5144093;27;26808;-88
2021/12/22 06:22:32;;;;;;;;;;;;;;;-1.48;69.73;102379.56;5145808;27;26907;-87
2021/12/22 06:24:58;;;;;;;;;;;;;;;-1.48;69.95;102377.03;5146773;27;26460;-88
2021/12/22 06:27:23;;;;;;;;;;;;;;;-1.49;69.44;102376.16;5125427;27;27613;-88
2021/12/22 06:29:49;;;;;;;;;;;;;;;-1.51;69.71;102377.75;5144275;27;31127;-87
2021/12/22 06:32:14;;;;;;;;;;;;;;;-1.49;69.98;102375.28;5127875;27;28173;-87
2021/12/22 06:34:39;;;;;;;;;;;;;;;-1.49;70.08;102377.81;5146556;27;26891;-88
2021/12/22 06:37:04;;;;;;;;;;;;;;;-1.48;69.83;102371.97;5144360;27;26980;-88
2021/12/22 06:39:30;;;;;;;;;;;;;;;-1.49;69.77;102366.03;5125493;27;27117;-88
2021/12/22 06:41:55;;;;;;;;;;;;;;;-1.50;69.55;102363.44;5144265;27;26796;-88
2021/12/22 06:44:23;;;;;;;;;;;;;;;-1.50;69.95;102363.44;5144773;27;26921;-88
2021/12/22 06:46:48;;;;;;;;;;;;;;;-1.51;69.87;102361.69;5144782;27;27795;-88
2021/12/22 06:49:14;;;;;;;;;;;;;;;-1.51;69.97;102356.63;5144518;27;26850;-88
2021/12/22 06:51:39;;;;;;;;;;;;;;;-1.53;69.63;102354.00;5143661;27;27624;-88
2021/12/22 06:54:05;;;;;;;;;;;;;;;-1.52;70.23;102358.28;5144167;27;27015;-88
2021/12/22 06:56:31;;;;;;;;;;;;;;;-1.50;69.87;102355.84;5145692;27;27133;-87
2021/12/22 06:58:57;;;;;;;;;;;;;;;-1.50;69.95;102368.50;5145753;27;26924;-87
2021/12/22 07:01:23;;;;;;;;;;;;;;;-1.52;69.88;102375.13;5144646;27;26921;-86
2021/12/22 07:03:48;;;;;;;;;;;;;;;-1.54;69.80;102384.34;5143893;27;26889;-87
2021/12/22 07:06:14;;;;;;;;;;;;;;;-1.56;69.55;102385.91;5143857;27;27017;-87
2021/12/22 07:08:39;;;;;;;;;;;;;;;-1.58;69.51;102385.00;5146009;27;27015;-87
2021/12/22 07:11:04;;;;;;;;;;;;;;;-1.56;69.92;102393.50;5143282;27;27818;-88
2021/12/22 07:13:31;;;;;;;;;;;;;;;-1.63;69.92;102376.28;5123146;27;47382;-88
2021/12/22 07:15:56;;;;;;;;;;;;;;;-1.56;69.56;102384.25;5123727;27;27888;-87
2021/12/22 07:18:22;;;;;;;;;;;;;;;-1.54;69.99;102381.81;5124391;27;26973;-87
2021/12/22 07:20:47;;;;;;;;;;;;;;;-1.52;69.86;102380.22;5142704;27;28060;-88
2021/12/22 07:23:13;;;;;;;;;;;;;;;-1.50;69.72;102378.63;5141625;27;27078;-89
2021/12/22 07:25:38;;;;;;;;;;;;;;;-1.48;69.84;102382.09;5142159;27;36066;-87
2021/12/22 07:28:03;;;;;;;;;;;;;;;-1.46;69.47;102381.38;5124554;27;27155;-87
2021/12/22 07:30:30;;;;;;;;;;;;;;;-1.44;70.19;102378.94;5124998;27;27551;-85
2021/12/22 07:32:56;;;;;;;;;;;;;;;-1.43;70.07;102385.75;5143366;27;27076;-87
2021/12/22 07:35:40;;;;;;;;;;;;;;;-1.44;69.53;102378.94;5142998;27;26984;-86
2021/12/22 07:38:08;;;;;;;;;;;;;;;-1.44;69.44;102389.06;5142682;27;26985;-87
2021/12/22 07:40:33;;;;;;;;;;;;;;;-1.44;69.95;102384.00;5124584;27;28525;-86
2021/12/22 07:42:58;;;;;;;;;;;;;;;-1.42;69.56;102382.38;5141518;27;26703;-86
2021/12/22 07:45:23;;;;;;;;;;;;;;;-1.40;69.44;102385.88;5123767;27;54280;-86
2021/12/22 07:47:48;;;;;;;;;;;;;;;-1.38;69.49;102379.22;5143825;27;26874;-85
2021/12/22 07:50:14;;;;;;;;;;;;;;;-1.34;69.64;102378.56;5141527;27;28171;-88
2021/12/22 07:52:39;;;;;;;;;;;;;;;-1.33;70.21;102371.84;5141096;27;26890;-87
2021/12/22 07:55:04;;;;;;;;;;;;;;;-1.31;69.61;102371.09;5140732;27;46869;-87
2021/12/22 07:57:30;;;;;;;;;;;;;;;-1.29;70.16;102369.53;5119342;27;26848;-87
2021/12/22 07:59:56;;;;;;;;;;;;;;;-1.27;70.02;102373.00;5140419;27;28404;-88
2021/12/22 08:02:21;;;;;;;;;;;;;;;-1.24;70.65;102375.69;5139464;27;26883;-87
2021/12/22 08:04:46;;;;;;;;;;;;;;;-1.21;69.89;102375.84;5139287;27;27125;-86
2021/12/22 08:07:11;;;;;;;;;;;;;;;-1.17;70.09;102375.19;5118917;27;54243;-87
2021/12/22 08:09:37;;;;;;;;;;;;;;;-1.13;70.31;102377.09;5141261;27;26883;-86
2021/12/22 08:12:05;;;;;;;;;;;;;;;-1.10;70.56;102371.28;5141730;27;26905;-86
2021/12/22 08:14:31;;;;;;;;;;;;;;;-1.06;70.88;102366.44;5124911;27;27701;-87
2021/12/22 08:16:56;;;;;;;;;;;;;;;-1.03;70.33;102364.03;5129645;27;26860;-87
2021/12/22 08:19:21;;;;;;;;;;;;;;;-0.97;70.95;102363.44;5145664;27;45024;-87
2021/12/22 08:21:47;;;;;;;;;;;;;;;-0.92;70.21;102356.91;5143583;27;49990;-87
2021/12/22 08:24:14;;;;;;;;;;;;;;;-0.86;70.42;102367.34;5123040;27;49492;-87
2021/12/22 08:26:39;;;;;;;;;;;;;;;-0.79;70.65;102364.31;5141083;27;26967;-87
2021/12/22 08:29:04;;;;;;;;;;;;;;;-0.70;71.34;102363.84;5139647;27;28074;-86
2021/12/22 08:31:30;;;;;;;;;;;;;;;-0.64;71.04;102364.13;5140638;27;39301;-87
2021/12/22 08:33:55;;;;;;;;;;;;;;;-0.58;70.38;102354.25;5122797;27;42654;-87
2021/12/22 08:39:07;;;;;;;;;;;;;;;-0.50;70.57;102353.81;5151658;27;26632;-87
2021/12/22 08:41:33;;;;;;;;;;;;;;;-0.42;70.76;102361.75;5147496;27;26645;-88
2021/12/22 08:44:00;;;;;;;;;;;;;;;-0.38;70.64;102358.56;5156898;27;27182;-88
2021/12/22 08:46:26;;;;;;;;;;;;;;;-0.34;70.34;102350.28;5146453;27;26980;-87
2021/12/22 08:48:54;;;;;;;;;;;;;;;-0.28;70.91;102353.06;5127534;27;27788;-87
2021/12/22 08:51:21;;;;;;;;;;;;;;;-0.23;71.01;102354.16;5125583;27;26639;-87
2021/12/22 08:53:46;;;;;;;;;;;;;;;-0.17;70.71;102356.94;5126213;27;28183;-87
2021/12/22 08:56:12;;;;;;;;;;;;;;;-0.10;71.35;102361.50;5149521;27;26860;-86
2021/12/22 08:58:38;;;;;;;;;;;;;;;-0.03;70.42;102363.47;5149099;27;27024;-87
2021/12/22 09:01:03;;;;;;;;;;;;;;;0.05;70.40;102357.84;5146910;27;26695;-87
2021/12/22 09:03:29;;;;;;;;;;;;;;;0.12;70.58;102359.84;5144840;27;26999;-87
2021/12/22 09:05:54;;;;;;;;;;;;;;;0.18;70.89;102357.59;5145127;27;26851;-87
2021/12/22 09:08:19;;;;;;;;;;;;;;;0.25;70.44;102364.66;5146111;27;27533;-88
2021/12/22 09:10:44;;;;;;;;;;;;;;;0.31;70.92;102357.28;5127792;27;26886;-87
2021/12/22 09:13:11;;;;;;;;;;;;;;;0.37;70.35;102371.13;5146687;27;27021;-87
2021/12/22 09:15:37;;;;;;;;;;;;;;;0.42;70.95;102358.59;5144808;27;27126;-87
2021/12/22 09:18:02;;;;;;;;;;;;;;;0.47;70.75;102363.06;5147572;27;27357;-87
2021/12/22 09:20:29;;;;;;;;;;;;;;;0.50;70.72;102357.22;5145495;27;27072;-87
2021/12/22 09:22:54;;;;;;;;;;;;;;;0.38;70.32;102331.31;5145503;27;27477;-87
2021/12/22 09:25:19;;;;;;;;;;;;;;;0.59;69.95;102370.34;5148659;27;26777;-87
2021/12/22 09:27:44;;;;;;;;;;;;;;;0.65;70.39;102370.56;5146090;27;26955;-87
2021/12/22 09:30:10;;;;;;;;;;;;;;;0.74;70.49;102373.50;5146115;27;31100;-88
2021/12/22 09:32:37;;;;;;;;;;;;;;;0.83;70.55;102373.84;5148648;27;26801;-87
2021/12/22 09:35:02;;;;;;;;;;;;;;;0.90;70.98;102386.00;5129248;27;27117;-87
2021/12/22 09:37:28;;;;;;;;;;;;;;;0.99;70.59;102370.22;5147465;27;27479;-86
2021/12/22 09:39:53;;;;;;;;;;;;;;;1.06;70.17;102371.31;5146265;27;26913;-87
2021/12/22 09:42:18;;;;;;;;;;;;;;;1.09;70.20;102366.38;5144298;27;27291;-88
2021/12/22 09:44:45;;;;;;;;;;;;;;;1.13;70.33;102364.00;5142141;27;27164;-89
2021/12/22 09:47:11;;;;;;;;;;;;;;;1.16;70.13;102368.34;5141827;27;27673;-89
2021/12/22 09:52:26;;;;;;;;;;;;;;;1.22;69.54;102371.13;5138281;27;27033;-89
2021/12/22 09:54:53;;;;;;;;;;;;;;;1.24;69.71;102372.03;5123624;27;27118;-88
2021/12/22 09:57:19;;;;;;;;;;;;;;;1.26;69.65;102370.44;5140787;27;27390;-87
2021/12/22 09:59:46;;;;;;;;;;;;;;;1.32;69.66;102375.72;5122166;27;27110;-87
2021/12/22 10:02:15;;;;;;;;;;;;;;;1.37;69.55;102374.25;5142854;27;27582;-88
2021/12/22 10:04:40;;;;;;;;;;;;;;;1.43;69.63;102369.38;5140919;27;26941;-89
2021/12/22 10:07:07;;;;;;;;;;;;;;;1.28;69.08;102348.44;5119999;27;57811;-88
2021/12/22 10:09:42;;;;;;;;;;;;;;;1.49;69.55;102364.53;5140280;27;26860;-87
2021/12/22 10:12:12;;;;;;;;;;;;;;;1.54;69.56;102357.91;5142644;27;27245;-88
2021/12/22 10:14:46;;;;;;;;;;;;;;;1.57;69.54;102345.31;5144030;27;26692;-87
2021/12/22 10:17:24;;;;;;;;;;;;;;;1.64;68.81;102338.75;5123428;27;27664;-87
2021/12/22 10:19:53;;;;;;;;;;;;;;;1.69;68.56;102342.31;5144327;27;26769;-89
2021/12/22 10:22:18;;;;;;;;;;;;;;;1.71;68.50;102346.66;5142403;27;27345;-89
2021/12/22 10:24:46;;;;;;;;;;;;;;;1.76;68.66;102354.47;5142658;27;27075;-88
2021/12/22 10:27:17;;;;;;;;;;;;;;;1.79;68.80;102350.34;5142142;27;27672;-88
2021/12/22 10:29:42;;;;;;;;;;;;;;;1.85;68.63;102355.66;5140985;27;26796;-87
2021/12/22 10:32:10;;;;;;;;;;;;;;;1.90;68.47;102356.69;5139566;27;56529;-88
2021/12/22 10:34:35;;;;;;;;;;;;;;;1.94;68.38;102356.00;5143372;27;27072;-89
2021/12/22 10:37:02;;;;;;;;;;;;;;;2.02;68.83;102355.38;5142548;27;27093;-89
2021/12/22 10:39:31;;;;;;;;;;;;;;;2.08;68.94;102348.81;5119128;27;27218;-89
2021/12/22 10:42:07;;;;;;;;;;;;;;;2.16;68.90;102343.97;5120083;27;27313;-89
2021/12/22 10:44:34;;;;;;;;;;;;;;;2.24;68.87;102340.00;5119062;27;27014;-88
2021/12/22 10:47:19;;;;;;;;;;;;;;;2.33;68.54;102341.16;5138454;27;27089;-88
2021/12/22 10:49:58;;;;;;;;;;;;;;;2.40;68.20;102337.13;5138365;27;27196;-88
2021/12/22 10:52:24;;;;;;;;;;;;;;;2.43;68.29;102332.16;5138893;27;27053;-87
2021/12/22 10:54:51;;;;;;;;;;;;;;;2.48;68.04;102330.59;5140332;27;26862;-89
2021/12/22 10:57:16;;;;;;;;;;;;;;;2.52;67.81;102331.56;5120306;27;28083;-89
2021/12/22 10:59:43;;;;;;;;;;;;;;;2.56;68.13;102324.06;5119890;27;56117;-89
2021/12/22 11:02:10;;;;;;;;;;;;;;;2.62;68.06;102329.38;5129719;27;27958;-89
2021/12/22 11:04:41;;;;;;;;;;;;;;;2.71;67.68;102314.34;5143592;27;27179;-88
2021/12/22 11:07:09;;;;;;;;;;;;;;;2.73;67.11;102320.38;5141370;27;27370;-89
2021/12/22 11:09:36;;;;;;;;;;;;;;;2.78;67.22;102313.72;5139476;27;26919;-90
2021/12/22 11:12:03;;;;;;;;;;;;;;;2.81;67.22;102321.47;5136654;27;28025;-89
2021/12/22 11:14:30;;;;;;;;;;;;;;;2.85;66.78;102322.41;5139963;27;27075;-89
2021/12/22 11:17:06;;;;;;;;;;;;;;;2.85;66.89;102307.97;5138983;27;26850;-90
2021/12/22 11:19:45;;;;;;;;;;;;;;;2.87;66.66;102311.47;5120976;27;27107;-89
2021/12/22 11:22:13;;;;;;;;;;;;;;;2.88;66.23;102308.09;5138435;27;28061;-90
2021/12/22 11:24:41;;;;;;;;;;;;;;;2.89;66.53;102308.94;5139212;27;26874;-90
2021/12/22 11:27:07;;;;;;;;;;;;;;;2.89;66.32;102314.91;5143801;27;27193;-88
2021/12/22 11:29:34;;;;;;;;;;;;;;;2.91;66.60;102305.63;5143780;27;26620;-87
2021/12/22 11:32:02;;;;;;;;;;;;;;;2.93;66.72;102309.09;5140347;27;28201;-89
2021/12/22 11:34:29;;;;;;;;;;;;;;;3.00;66.88;102301.63;5139467;27;26364;-88
2021/12/22 11:36:56;;;;;;;;;;;;;;;3.06;66.54;102301.81;5138854;27;26979;-87
2021/12/22 11:39:22;;;;;;;;;;;;;;;3.12;66.95;102286.66;5139474;27;27131;-88
2021/12/22 11:41:59;;;;;;;;;;;;;;;3.18;66.40;102291.97;5139598;27;27152;-87
2021/12/22 11:44:25;;;;;;;;;;;;;;;3.19;66.40;102294.53;5140870;27;26787;-88
2021/12/22 11:46:53;;;;;;;;;;;;;;;3.21;66.70;102297.16;5120738;27;27996;-89
2021/12/22 11:49:23;;;;;;;;;;;;;;;3.22;66.34;102288.69;5139628;27;27024;-87
2021/12/22 11:51:49;;;;;;;;;;;;;;;3.22;66.03;102288.69;5119916;27;27905;-88
2021/12/22 11:54:14;;;;;;;;;;;;;;;3.22;66.16;102284.44;5140078;27;27024;-88
2021/12/22 11:56:42;;;;;;;;;;;;;;;3.22;66.15;102278.47;5120259;27;27666;-88
2021/12/22 11:59:24;;;;;;;;;;;;;;;3.23;65.83;102275.06;5144435;27;26830;-88
2021/12/22 12:02:07;;;;;;;;;;;;;;;3.23;66.04;102280.16;5134792;27;27277;-88
2021/12/22 12:04:34;;;;;;;;;;;;;;;3.25;66.09;102263.22;5117196;27;27157;-87
2021/12/22 12:07:00;;;;;;;;;;;;;;;3.25;65.91;102269.22;5134112;27;27255;-88
2021/12/22 12:09:29;;;;;;;;;;;;;;;3.25;65.36;102265.78;5135136;27;26927;-87
2021/12/22 12:11:57;;;;;;;;;;;;;;;3.26;65.89;102259.88;5112264;27;27993;-89
2021/12/22 12:14:34;;;;;;;;;;;;;;;3.28;65.53;102260.75;5113642;27;26962;-89
2021/12/22 12:23:23;;;;;;;;;;;;;;;3.34;65.32;102243.03;5118974;27;27202;-88
2021/12/22 12:25:49;;;;;;;;;;;;;;;3.34;65.28;102243.03;5145971;27;26981;-88
2021/12/22 12:28:16;;;;;;;;;;;;;;;3.35;65.32;102234.56;5147760;27;27125;-87
2021/12/22 12:30:44;;;;;;;;;;;;;;;3.35;65.56;102230.34;5148311;27;27070;-88
2021/12/22 12:33:10;;;;;;;;;;;;;;;3.36;65.23;102226.97;5130886;27;27630;-88
2021/12/22 12:35:37;;;;;;;;;;;;;;;3.36;64.57;102226.09;5129130;27;27137;-88
2021/12/22 12:38:05;;;;;;;;;;;;;;;3.34;65.22;102230.28;5128341;27;28622;-87
2021/12/22 12:40:49;;;;;;;;;;;;;;;3.35;65.09;102219.25;5127958;27;26825;-88
2021/12/22 12:43:14;;;;;;;;;;;;;;;3.35;64.91;102219.25;5144821;27;27461;-87
2021/12/22 12:45:41;;;;;;;;;;;;;;;3.35;65.23;102221.81;5144506;27;50138;-88
2021/12/22 12:48:27;;;;;;;;;;;;;;;3.37;65.37;102217.63;5126507;27;27587;-88
2021/12/22 12:51:24;;;;;;;;;;;;;;;3.35;64.99;102209.03;5145947;27;27026;-88
2021/12/22 12:53:53;;;;;;;;;;;;;;;3.35;65.62;102211.59;5106868;27;28716;-88
2021/12/22 12:56:19;;;;;;;;;;;;;;;3.36;65.48;102206.53;5126393;27;27183;-87
2021/12/22 13:01:59;;;;;;;;;;;;;;;3.35;65.32;102198.81;5099515;28;27041;-87
2021/12/22 13:04:35;;;;;;;;;;;;;;;3.35;65.47;102196.25;5082298;28;27837;-86
2021/12/22 13:07:01;;;;;;;;;;;;;;;3.35;65.38;102197.13;5098952;28;27041;-88